createdAt,value
2023-03-06T00:01:08.667Z,100.00
2023-03-06T00:03:36.444Z,100.00
2023-03-06T00:06:06.037Z,100.00
2023-03-06T00:08:34.030Z,100.00
2023-03-06T00:11:01.862Z,100.00
2023-03-06T00:13:30.673Z,100.00
2023-03-06T00:16:00.488Z,100.00
2023-03-06T00:18:28.536Z,100.00
2023-03-06T00:20:56.355Z,100.00
2023-03-06T00:23:25.746Z,100.00
2023-03-06T00:25:53.625Z,100.00
2023-03-06T00:28:21.415Z,100.00
2023-03-06T00:30:49.240Z,100.00
2023-03-06T00:33:17.399Z,100.00
2023-03-06T00:35:45.246Z,100.00
2023-03-06T00:38:13.668Z,100.00
2023-03-06T00:40:43.032Z,100.00
2023-03-06T00:43:10.926Z,100.00
2023-03-06T00:45:38.900Z,100.00
2023-03-06T00:48:09.514Z,100.00
2023-03-06T00:50:37.585Z,100.00
2023-03-06T00:53:05.476Z,100.00
2023-03-06T00:55:33.636Z,100.00
2023-03-06T00:58:03.008Z,100.00
2023-03-06T01:00:30.879Z,100.00
2023-03-06T01:02:58.866Z,100.00
2023-03-06T01:05:26.749Z,100.00
2023-03-06T01:07:54.771Z,100.00
2023-03-06T01:10:22.872Z,100.00
2023-03-06T01:12:50.659Z,100.00
2023-03-06T01:15:21.724Z,100.00
2023-03-06T01:17:52.842Z,100.00
2023-03-06T01:20:21.381Z,100.00
2023-03-06T01:22:49.256Z,100.00
2023-03-06T01:25:17.028Z,100.00
2023-03-06T01:27:44.788Z,100.00
2023-03-06T01:30:13.926Z,100.00
2023-03-06T01:32:43.444Z,100.00
2023-03-06T01:35:12.212Z,100.00
2023-03-06T01:37:40.596Z,100.00
2023-03-06T01:40:12.105Z,100.00
2023-03-06T01:42:40.033Z,100.00
2023-03-06T01:45:46.599Z,100.00
2023-03-06T01:48:16.132Z,100.00
2023-03-06T01:50:44.343Z,100.00
2023-03-06T01:53:13.996Z,100.00
2023-03-06T01:55:42.126Z,100.00
2023-03-06T01:58:13.903Z,100.00
2023-03-06T02:00:41.762Z,100.00
2023-03-06T02:03:13.449Z,100.00
2023-03-06T02:05:44.718Z,100.00
2023-03-06T02:08:15.904Z,100.00
2023-03-06T02:10:44.916Z,100.00
2023-03-06T02:13:12.650Z,100.00
2023-03-06T02:15:40.496Z,100.00
2023-03-06T02:18:08.501Z,100.00
2023-03-06T02:20:40.962Z,100.00
2023-03-06T02:23:15.884Z,100.00
2023-03-06T02:25:48.038Z,100.00
2023-03-06T02:28:18.530Z,100.00
2023-03-06T02:30:48.783Z,100.00
2023-03-06T02:33:18.276Z,100.00
2023-03-06T02:35:51.266Z,100.00
2023-03-06T02:38:22.034Z,100.00
2023-03-06T02:40:52.869Z,100.00
2023-03-06T02:43:25.455Z,100.00
2023-03-06T02:45:53.458Z,100.00
2023-03-06T02:48:22.083Z,100.00
2023-03-06T02:50:50.313Z,100.00
2023-03-06T02:53:20.338Z,100.00
2023-03-06T02:55:48.735Z,100.00
2023-03-06T02:58:20.580Z,100.00
2023-03-06T03:00:49.789Z,100.00
2023-03-06T03:03:18.537Z,100.00
2023-03-06T03:05:47.048Z,100.00
2023-03-06T03:08:24.706Z,100.00
2023-03-06T03:10:57.471Z,100.00
2023-03-06T03:13:28.525Z,100.00
2023-03-06T03:16:01.100Z,100.00
2023-03-06T03:18:29.382Z,100.00
2023-03-06T03:20:57.395Z,100.00
2023-03-06T03:23:25.676Z,100.00
2023-03-06T03:25:53.994Z,100.00
2023-03-06T03:28:22.303Z,100.00
2023-03-06T03:30:51.817Z,100.00
2023-03-06T03:33:19.975Z,100.00
2023-03-06T03:35:47.858Z,100.00
2023-03-06T03:38:17.213Z,100.00
2023-03-06T03:40:44.984Z,100.00
2023-03-06T03:43:13.154Z,100.00
2023-03-06T03:45:41.315Z,100.00
2023-03-06T03:48:10.506Z,100.00
2023-03-06T03:50:40.275Z,100.00
2023-03-06T03:53:08.419Z,100.00
2023-03-06T03:55:36.621Z,100.00
2023-03-06T03:58:05.578Z,100.00
2023-03-06T04:00:33.774Z,100.00
2023-03-06T04:03:11.817Z,100.00
2023-03-06T04:05:43.401Z,100.00
2023-03-06T04:08:14.204Z,100.00
2023-03-06T04:10:44.958Z,100.00
2023-03-06T04:13:15.441Z,100.00
2023-03-06T04:15:46.494Z,100.00
2023-03-06T04:18:16.570Z,100.00
2023-03-06T04:20:45.770Z,100.00
2023-03-06T04:23:14.425Z,100.00
2023-03-06T04:25:42.920Z,100.00
2023-03-06T04:28:13.358Z,100.00
2023-03-06T04:30:41.378Z,100.00
2023-03-06T04:33:10.398Z,100.00
2023-03-06T04:35:40.167Z,100.00
2023-03-06T04:38:14.186Z,100.00
2023-03-06T04:40:44.810Z,100.00
2023-03-06T04:43:13.063Z,100.00
2023-03-06T04:45:40.876Z,100.00
2023-03-06T04:48:09.092Z,100.00
2023-03-06T04:50:38.117Z,100.00
2023-03-06T04:53:08.605Z,100.00
2023-03-06T04:55:36.492Z,100.00
2023-03-06T04:58:04.477Z,100.00
2023-03-06T05:00:32.548Z,100.00
2023-03-06T05:03:01.736Z,100.00
2023-03-06T05:05:29.843Z,100.00
2023-03-06T05:07:57.992Z,100.00
2023-03-06T05:10:27.416Z,100.00
2023-03-06T05:12:55.187Z,100.00
2023-03-06T05:15:23.194Z,100.00
2023-03-06T05:17:51.162Z,100.00
2023-03-06T05:20:19.282Z,100.00
2023-03-06T05:22:47.361Z,100.00
2023-03-06T05:25:15.358Z,100.00
2023-03-06T05:27:44.569Z,100.00
2023-03-06T05:30:14.912Z,100.00
2023-03-06T05:32:42.921Z,100.00
2023-03-06T05:35:18.068Z,100.00
2023-03-06T05:37:45.894Z,100.00
2023-03-06T05:40:14.624Z,100.00
2023-03-06T05:42:43.959Z,100.00
2023-03-06T05:45:12.914Z,100.00
2023-03-06T05:47:40.809Z,100.00
2023-03-06T05:50:10.451Z,100.00
2023-03-06T05:52:39.526Z,100.00
2023-03-06T05:55:09.236Z,100.00
2023-03-06T05:57:36.996Z,100.00
2023-03-06T06:00:07.997Z,100.00
2023-03-06T06:02:40.492Z,100.00
2023-03-06T06:05:11.322Z,100.00
2023-03-06T06:07:40.900Z,100.00
2023-03-06T06:10:10.232Z,100.00
2023-03-06T06:12:38.281Z,100.00
2023-03-06T06:15:08.700Z,100.00
2023-03-06T06:17:36.572Z,100.00
2023-03-06T06:20:05.183Z,100.00
2023-03-06T06:22:32.939Z,100.00
2023-03-06T06:25:00.708Z,100.00
2023-03-06T06:27:28.539Z,100.00
2023-03-06T06:29:56.387Z,100.00
2023-03-06T06:32:25.702Z,100.00
2023-03-06T06:34:53.563Z,100.00
2023-03-06T06:37:21.328Z,100.00
2023-03-06T06:39:49.250Z,100.00
2023-03-06T06:42:38.890Z,100.00
2023-03-06T06:45:06.157Z,100.00
2023-03-06T06:47:38.577Z,100.00
2023-03-06T06:50:07.725Z,100.00
2023-03-06T06:52:35.642Z,100.00
2023-03-06T06:55:03.704Z,100.00
2023-03-06T06:57:31.940Z,100.00
2023-03-06T06:59:59.875Z,100.00
2023-03-06T07:02:27.771Z,100.00
2023-03-06T07:05:04.146Z,100.00
2023-03-06T07:07:35.429Z,100.00
2023-03-06T07:10:03.632Z,100.00
2023-03-06T07:12:32.909Z,100.00
2023-03-06T07:15:00.715Z,100.00
2023-03-06T07:17:28.558Z,100.00
2023-03-06T07:19:57.874Z,100.00
2023-03-06T07:22:25.683Z,100.00
2023-03-06T07:24:53.480Z,100.00
2023-03-06T07:27:23.792Z,100.00
2023-03-06T07:29:51.766Z,100.00
2023-03-06T07:32:20.705Z,100.00
2023-03-06T07:34:48.920Z,100.00
2023-03-06T07:37:18.305Z,100.00
2023-03-06T07:39:46.198Z,100.00
2023-03-06T07:42:15.153Z,100.00
2023-03-06T07:44:53.966Z,100.00
2023-03-06T07:47:21.796Z,100.00
2023-03-06T07:49:49.529Z,100.00
2023-03-06T07:52:18.889Z,100.00
2023-03-06T07:54:46.708Z,100.00
2023-03-06T07:57:14.908Z,100.00
2023-03-06T07:59:42.943Z,100.00
2023-03-06T08:02:11.899Z,100.00
2023-03-06T08:04:40.225Z,100.00
2023-03-06T08:07:08.071Z,100.00
2023-03-06T08:09:37.552Z,100.00
2023-03-06T08:12:05.510Z,100.00
2023-03-06T08:14:35.583Z,100.00
2023-03-06T08:17:03.710Z,100.00
2023-03-06T08:19:31.538Z,100.00
2023-03-06T08:21:59.536Z,100.00
2023-03-06T08:24:27.439Z,100.00
2023-03-06T08:26:56.786Z,100.00
2023-03-06T08:29:24.683Z,100.00
2023-03-06T08:31:52.568Z,100.00
2023-03-06T08:34:24.189Z,100.00
2023-03-06T08:36:52.589Z,100.00
2023-03-06T08:39:21.190Z,100.00
2023-03-06T08:41:48.957Z,100.00
2023-03-06T08:44:18.227Z,100.00
2023-03-06T08:46:46.082Z,100.00
2023-03-06T08:49:14.425Z,100.00
2023-03-06T08:51:42.457Z,100.00
2023-03-06T08:54:13.211Z,100.00
2023-03-06T08:56:41.208Z,100.00
2023-03-06T08:59:10.488Z,100.00
2023-03-06T09:01:40.904Z,100.00
2023-03-06T09:04:11.752Z,100.00
2023-03-06T09:06:43.375Z,100.00
2023-03-06T09:09:12.042Z,100.00
2023-03-06T09:11:40.451Z,100.00
2023-03-06T09:14:08.571Z,100.00
2023-03-06T09:16:36.682Z,100.00
2023-03-06T09:19:06.123Z,100.00
2023-03-06T09:21:34.028Z,100.00
2023-03-06T09:24:01.852Z,100.00
2023-03-06T09:26:43.478Z,100.00
2023-03-06T09:29:13.418Z,100.00
2023-03-06T09:31:41.576Z,100.00
2023-03-06T09:34:10.720Z,100.00
2023-03-06T09:36:54.907Z,100.00
2023-03-06T09:39:24.918Z,100.00
2023-03-06T09:41:53.654Z,100.00
2023-03-06T09:44:23.636Z,100.00
2023-03-06T09:47:14.538Z,100.00
2023-03-06T09:50:01.729Z,100.00
2023-03-06T09:52:38.526Z,100.00
2023-03-06T09:55:13.402Z,100.00
2023-03-06T09:57:46.234Z,100.00
2023-03-06T10:00:18.051Z,100.00
2023-03-06T10:02:49.090Z,100.00
2023-03-06T10:05:22.693Z,100.00
2023-03-06T10:07:55.103Z,100.00
2023-03-06T10:10:26.115Z,100.00
2023-03-06T10:13:01.480Z,100.00
2023-03-06T10:15:33.909Z,100.00
2023-03-06T10:18:03.129Z,100.00
2023-03-06T10:20:37.995Z,100.00
2023-03-06T10:23:30.051Z,100.00
2023-03-06T10:26:01.642Z,100.00
2023-03-06T10:28:32.767Z,100.00
2023-03-06T10:31:06.961Z,100.00
2023-03-06T10:33:50.836Z,100.00
2023-03-06T10:36:22.511Z,100.00
2023-03-06T10:38:50.642Z,100.00
2023-03-06T10:41:24.933Z,100.00
2023-03-06T10:44:35.488Z,100.00
2023-03-06T10:47:27.478Z,100.00
2023-03-06T10:50:01.005Z,100.00
2023-03-06T10:52:32.876Z,100.00
2023-03-06T10:55:23.789Z,100.00
2023-03-06T10:57:51.941Z,100.00
2023-03-06T11:00:36.004Z,100.00
2023-03-06T11:03:18.041Z,100.00
2023-03-06T11:05:59.237Z,100.00
2023-03-06T11:08:29.257Z,100.00
2023-03-06T11:11:02.315Z,100.00
2023-03-06T11:13:32.238Z,100.00
2023-03-06T11:16:03.962Z,100.00
2023-03-06T11:18:41.165Z,100.00
2023-03-06T11:21:30.387Z,100.00
2023-03-06T11:24:05.344Z,100.00
2023-03-06T11:26:39.284Z,100.00
2023-03-06T11:29:16.955Z,100.00
2023-03-06T11:31:51.548Z,100.00
2023-03-06T11:34:25.568Z,100.00
2023-03-06T11:36:57.980Z,100.00
2023-03-06T11:39:36.087Z,100.00
2023-03-06T11:42:10.950Z,100.00
2023-03-06T11:44:52.921Z,100.00
2023-03-06T11:47:24.597Z,100.00
2023-03-06T11:50:01.885Z,100.00
2023-03-06T11:52:43.067Z,100.00
2023-03-06T11:55:18.313Z,100.00
2023-03-06T11:57:52.334Z,100.00
2023-03-06T12:00:30.567Z,100.00
2023-03-06T12:03:30.283Z,100.00
2023-03-06T12:06:04.126Z,100.00
2023-03-06T12:08:51.902Z,100.00
2023-03-06T12:11:25.455Z,100.00
2023-03-06T12:14:08.063Z,100.00
2023-03-06T12:16:58.592Z,97.93
2023-03-06T12:19:39.038Z,97.21
2023-03-06T12:22:22.493Z,97.52
2023-03-06T12:25:07.965Z,97.28
2023-03-06T12:27:46.075Z,95.68
2023-03-06T12:30:30.092Z,96.68
2023-03-06T12:33:06.304Z,97.85
2023-03-06T12:35:51.656Z,99.10
2023-03-06T12:38:49.995Z,96.64
2023-03-06T12:41:28.229Z,96.34
2023-03-06T12:44:18.612Z,96.78
2023-03-06T12:46:50.577Z,95.54
2023-03-06T12:49:31.957Z,93.88
2023-03-06T12:52:02.256Z,93.76
2023-03-06T12:54:34.741Z,93.68
2023-03-06T12:57:02.835Z,94.80
2023-03-06T12:59:42.972Z,96.70
2023-03-06T13:02:44.323Z,95.91
2023-03-06T13:05:30.913Z,99.18
2023-03-06T13:08:14.229Z,98.58
2023-03-06T13:10:44.884Z,98.96
2023-03-06T13:13:32.819Z,99.43
2023-03-06T13:16:14.786Z,100.00
2023-03-06T13:18:55.496Z,100.00
2023-03-06T13:21:46.445Z,100.00
2023-03-06T13:24:21.157Z,100.00
2023-03-06T13:27:01.322Z,100.00
2023-03-06T13:30:06.621Z,100.00
2023-03-06T13:32:37.211Z,100.00
2023-03-06T13:35:52.881Z,100.00
2023-03-06T13:38:59.774Z,100.00
2023-03-06T13:41:37.650Z,100.00
2023-03-06T13:44:49.575Z,100.00
2023-03-06T13:48:01.374Z,100.00
2023-03-06T13:50:37.994Z,98.33
2023-03-06T13:53:30.924Z,99.87
2023-03-06T13:56:11.084Z,100.00
2023-03-06T13:58:53.217Z,99.74
2023-03-06T14:01:37.002Z,95.62
2023-03-06T14:04:34.607Z,96.16
2023-03-06T14:07:19.150Z,95.20
2023-03-06T14:09:48.826Z,84.98
2023-03-06T14:12:23.628Z,83.01
2023-03-06T14:14:56.988Z,81.40
2023-03-06T14:17:29.737Z,81.09
2023-03-06T14:20:01.861Z,79.57
2023-03-06T14:22:29.965Z,77.67
2023-03-06T14:25:01.959Z,75.65
2023-03-06T14:27:42.899Z,74.30
2023-03-06T14:30:15.972Z,72.66
2023-03-06T14:32:44.638Z,74.37
2023-03-06T14:35:29.552Z,74.69
2023-03-06T14:38:04.939Z,74.05
2023-03-06T14:40:35.995Z,72.64
2023-03-06T14:43:24.607Z,72.08
2023-03-06T14:45:57.918Z,73.29
2023-03-06T14:48:28.045Z,73.30
2023-03-06T14:50:58.634Z,71.89
2023-03-06T14:53:29.226Z,73.31
2023-03-06T14:56:00.297Z,71.60
2023-03-06T14:58:32.649Z,69.74
2023-03-06T15:01:06.470Z,69.06
2023-03-06T15:03:45.226Z,72.05
2023-03-06T15:06:18.262Z,71.25
2023-03-06T15:08:48.663Z,70.83
2023-03-06T15:11:16.689Z,70.92
2023-03-06T15:14:00.784Z,68.67
2023-03-06T15:16:30.370Z,70.61
2023-03-06T15:19:00.191Z,69.54
2023-03-06T15:21:38.910Z,69.74
2023-03-06T15:24:34.644Z,68.86
2023-03-06T15:27:04.548Z,68.39
2023-03-06T15:29:33.102Z,70.14
2023-03-06T15:32:32.329Z,71.83
2023-03-06T15:35:32.761Z,74.75
2023-03-06T15:38:03.649Z,76.46
2023-03-06T15:40:32.903Z,73.26
2023-03-06T15:43:01.039Z,73.46
2023-03-06T15:45:31.894Z,71.15
2023-03-06T15:47:59.732Z,74.69
2023-03-06T15:50:30.259Z,74.83
2023-03-06T15:52:58.384Z,76.09
2023-03-06T15:55:27.850Z,74.07
2023-03-06T15:57:59.547Z,73.61
2023-03-06T16:00:29.489Z,73.51
2023-03-06T16:02:58.325Z,75.44
2023-03-06T16:05:29.429Z,76.58
2023-03-06T16:07:58.974Z,76.27
2023-03-06T16:10:30.793Z,75.19
2023-03-06T16:13:02.980Z,76.20
2023-03-06T16:15:33.118Z,78.06
2023-03-06T16:18:01.284Z,78.32
2023-03-06T16:20:30.380Z,78.38
2023-03-06T16:22:58.287Z,77.27
2023-03-06T16:25:29.407Z,77.76
2023-03-06T16:27:59.486Z,80.57
2023-03-06T16:30:29.387Z,80.82
2023-03-06T16:32:57.876Z,80.67
2023-03-06T16:35:26.735Z,81.89
2023-03-06T16:37:54.979Z,82.64
2023-03-06T16:40:25.333Z,83.32
2023-03-06T16:42:55.271Z,84.11
2023-03-06T16:45:24.996Z,84.71
2023-03-06T16:47:53.133Z,83.83
2023-03-06T16:50:25.447Z,84.51
2023-03-06T16:52:54.819Z,86.33
2023-03-06T16:55:23.268Z,86.54
2023-03-06T16:57:51.503Z,88.25
2023-03-06T17:00:22.525Z,87.92
2023-03-06T17:02:50.903Z,88.17
2023-03-06T17:05:19.893Z,87.95
2023-03-06T17:07:47.910Z,91.71
2023-03-06T17:10:17.754Z,90.57
2023-03-06T17:12:45.855Z,91.57
2023-03-06T17:15:13.741Z,92.06
2023-03-06T17:17:43.033Z,92.65
2023-03-06T17:20:13.724Z,92.80
2023-03-06T17:22:42.027Z,93.00
2023-03-06T17:25:10.730Z,92.95
2023-03-06T17:27:39.112Z,93.57
2023-03-06T17:30:08.377Z,94.95
2023-03-06T17:32:36.350Z,96.54
2023-03-06T17:35:06.596Z,96.67
2023-03-06T17:37:34.342Z,97.64
2023-03-06T17:40:02.267Z,97.43
2023-03-06T17:42:30.087Z,97.49
2023-03-06T17:44:57.933Z,97.11
2023-03-06T17:47:25.808Z,97.02
2023-03-06T17:49:53.987Z,97.00
2023-03-06T17:52:23.313Z,97.24
2023-03-06T17:54:51.304Z,97.53
2023-03-06T17:57:19.084Z,98.27
2023-03-06T17:59:48.627Z,98.28
2023-03-06T18:02:16.609Z,98.53
2023-03-06T18:04:44.593Z,98.91
2023-03-06T18:07:12.412Z,99.66
2023-03-06T18:09:43.865Z,99.95
2023-03-06T18:12:12.374Z,100.00
2023-03-06T18:14:40.232Z,100.00
2023-03-06T18:17:08.119Z,100.00
2023-03-06T18:19:36.219Z,100.00
2023-03-06T18:22:03.952Z,100.00
2023-03-06T18:24:31.744Z,100.00
2023-03-06T18:27:01.197Z,100.00
2023-03-06T18:29:29.084Z,100.00
2023-03-06T18:31:59.128Z,100.00
2023-03-06T18:34:27.308Z,100.00
2023-03-06T18:36:55.186Z,100.00
2023-03-06T18:39:23.106Z,100.00
2023-03-06T18:41:51.740Z,100.00
2023-03-06T18:44:21.164Z,100.00
2023-03-06T18:46:49.102Z,100.00
2023-03-06T18:49:17.188Z,100.00
2023-03-06T18:51:45.011Z,100.00
2023-03-06T18:54:12.984Z,100.00
2023-03-06T18:56:44.094Z,100.00
2023-03-06T18:59:16.423Z,100.00
2023-03-06T19:01:47.557Z,100.00
2023-03-06T19:04:15.500Z,100.00
2023-03-06T19:06:43.489Z,100.00
2023-03-06T19:09:11.697Z,100.00
2023-03-06T19:11:39.544Z,100.00
2023-03-06T19:14:07.907Z,100.00
2023-03-06T19:16:35.964Z,100.00
2023-03-06T19:19:05.301Z,100.00
2023-03-06T19:21:33.459Z,100.00
2023-03-06T19:24:02.960Z,100.00
2023-03-06T19:26:31.377Z,100.00
2023-03-06T19:28:59.668Z,100.00
2023-03-06T19:31:29.396Z,100.00
2023-03-06T19:33:58.075Z,100.00
2023-03-06T19:36:33.455Z,100.00
2023-03-06T19:39:04.693Z,100.00
2023-03-06T19:41:32.776Z,100.00
2023-03-06T19:44:03.356Z,100.00
2023-03-06T19:46:31.706Z,100.00
2023-03-06T19:49:01.035Z,100.00
2023-03-06T19:51:30.932Z,100.00
2023-03-06T19:53:58.785Z,100.00
2023-03-06T19:56:29.057Z,100.00
2023-03-06T19:58:57.552Z,100.00
2023-03-06T20:01:28.006Z,100.00
2023-03-06T20:03:58.666Z,100.00
2023-03-06T20:06:28.933Z,100.00
2023-03-06T20:08:58.194Z,100.00
2023-03-06T20:11:29.801Z,100.00
2023-03-06T20:13:59.642Z,100.00
2023-03-06T20:16:28.918Z,100.00
2023-03-06T20:18:58.930Z,100.00
2023-03-06T20:21:27.415Z,100.00
2023-03-06T20:23:56.984Z,100.00
2023-03-06T20:26:28.260Z,100.00
2023-03-06T20:28:56.864Z,100.00
2023-03-06T20:31:26.991Z,100.00
2023-03-06T20:33:55.142Z,100.00
2023-03-06T20:36:27.672Z,100.00
2023-03-06T20:38:55.630Z,100.00
2023-03-06T20:41:27.569Z,100.00
2023-03-06T20:43:55.789Z,100.00
2023-03-06T20:46:24.748Z,100.00
2023-03-06T20:48:54.109Z,100.00
2023-03-06T20:51:23.985Z,100.00
2023-03-06T20:53:54.242Z,100.00
2023-03-06T20:56:22.580Z,100.00
2023-03-06T20:58:52.384Z,100.00
2023-03-06T21:01:21.212Z,100.00
2023-03-06T21:03:49.674Z,100.00
2023-03-06T21:06:18.183Z,100.00
2023-03-06T21:08:46.232Z,100.00
2023-03-06T21:11:14.421Z,100.00
2023-03-06T21:13:42.423Z,100.00
2023-03-06T21:16:14.321Z,100.00
2023-03-06T21:18:42.528Z,100.00
2023-03-06T21:21:12.561Z,100.00
2023-03-06T21:23:40.713Z,100.00
2023-03-06T21:26:08.650Z,100.00
2023-03-06T21:28:36.700Z,100.00
2023-03-06T21:31:08.448Z,100.00
2023-03-06T21:33:38.487Z,100.00
2023-03-06T21:36:07.693Z,100.00
2023-03-06T21:38:36.680Z,100.00
2023-03-06T21:41:08.994Z,100.00
2023-03-06T21:43:36.884Z,100.00
2023-03-06T21:46:04.877Z,100.00
2023-03-06T21:48:33.170Z,100.00
2023-03-06T21:51:10.868Z,100.00
2023-03-06T21:53:40.965Z,100.00
2023-03-06T21:56:09.793Z,100.00
2023-03-06T21:58:38.383Z,100.00
2023-03-06T22:01:10.977Z,100.00
2023-03-06T22:03:39.529Z,100.00
2023-03-06T22:06:13.935Z,100.00
2023-03-06T22:08:42.578Z,100.00
2023-03-06T22:11:12.501Z,100.00
2023-03-06T22:13:41.194Z,100.00
2023-03-06T22:16:09.756Z,100.00
2023-03-06T22:18:38.173Z,100.00
2023-03-06T22:21:09.751Z,100.00
2023-03-06T22:23:40.286Z,100.00
2023-03-06T22:26:11.302Z,100.00
2023-03-06T22:28:39.482Z,100.00
2023-03-06T22:31:08.953Z,100.00
2023-03-06T22:33:37.025Z,100.00
2023-03-06T22:36:07.679Z,100.00
2023-03-06T22:38:36.791Z,100.00
2023-03-06T22:41:06.925Z,100.00
2023-03-06T22:43:35.097Z,100.00
2023-03-06T22:46:03.961Z,100.00
2023-03-06T22:48:32.392Z,100.00
2023-03-06T22:51:04.499Z,100.00
2023-03-06T22:53:32.875Z,100.00
2023-03-06T22:56:01.270Z,100.00
2023-03-06T22:58:34.410Z,100.00
2023-03-06T23:01:08.488Z,100.00
2023-03-06T23:03:37.582Z,100.00
2023-03-06T23:06:10.604Z,100.00
2023-03-06T23:08:39.324Z,100.00
2023-03-06T23:11:09.943Z,100.00
2023-03-06T23:13:58.714Z,100.00
2023-03-06T23:16:45.239Z,100.00
2023-03-06T23:19:31.927Z,100.00
2023-03-06T23:22:18.397Z,100.00
2023-03-06T23:25:05.971Z,100.00
2023-03-06T23:27:33.793Z,100.00
2023-03-06T23:30:03.600Z,100.00
2023-03-06T23:32:32.897Z,100.00
2023-03-06T23:35:01.572Z,100.00
2023-03-06T23:37:29.602Z,100.00
2023-03-06T23:39:57.707Z,100.00
2023-03-06T23:42:25.563Z,100.00
2023-03-06T23:44:53.337Z,100.00
2023-03-06T23:47:22.610Z,100.00
2023-03-06T23:49:50.507Z,100.00
2023-03-06T23:52:18.691Z,100.00
2023-03-06T23:54:49.670Z,100.00
2023-03-06T23:57:17.578Z,100.00
2023-03-06T23:59:45.545Z,100.00
